aviador You're here:

KMCN Decoded Metar

MACON in GA, USA
Report Time2018-01-17 08:53:00
UTC Time2018-01-17 09:18:59
Flight Rules vfr VFR
Wind330° at 08 kt
W.Decomp.*RWY 31: 7.4 kt HW 3.1 kt RCW
RWY 05: 1.8 kt HW 7.8 kt LCW
W.Rank330° ranks 19
Current wind is above 330° avg. (7.0)
Visibility9999 m
Phenomena:N/A
Clouds:Scattered 033 Hf
Overcast 060 Hf
Expected CloudBase > 1,600 ft AGL from Temp-Dew spread
Ceiling6,000 ft
Temp02°C (ISA -12)
Dew Point-2°C (75% RH)
AAT-3.1°C
QNH1027 hPa
Density Alt-1,539 ft
Elevation358 ft
Report Wrong Elevation
Raw Report
METAR KMCN 170853Z AUTO 33008KT 10SM SCT033 OVC060 02/M02 A3033 RMK
AO2 SLP269 T00171022 55002=

Extra information for KMCN:More info

Metar Taf Metar & Taf Last 4 Metars F.Rules Stats Wind Profile Meteogram Temp Stats Airport Information Weather charts Add Link Nearby VenuesMetar ALERT Operation Metar Decoded Social comments

AIRNAV info for KMCN